Time;durP1;ratioP1;P1;durP2;ratioP2;P2;SDS_P1;SDS_P2;PMS_P1;PMS_P2;Temp;Humidity;BMP_temperature;BMP_pressure;BME280_temperature;BME280_humidity;BME280_pressure;Samples;Min_cycle;Max_cycle;Signal;HPM_P1;HPM_P2
2021/06/08 00:01:17;;;;;;;5.13;3.55;;;23.90;45.30;;;27.63;30.61;102007.13;5154865;27;20068;-56
2021/06/08 00:03:43;;;;;;;3.78;3.28;;;23.90;45.30;;;27.61;30.62;101998.28;5155111;27;20046;-52
2021/06/08 00:06:09;;;;;;;4.63;3.65;;;23.80;45.30;;;27.62;30.71;101999.16;5154815;27;20038;-54
2021/06/08 00:08:35;;;;;;;4.53;3.78;;;23.80;45.30;;;27.60;30.65;101999.28;5150628;27;20042;-56
2021/06/08 00:11:01;;;;;;;4.00;3.60;;;23.90;45.30;;;27.58;30.61;101990.44;5154644;27;20145;-54
2021/06/08 00:13:26;;;;;;;5.45;3.95;;;23.80;45.30;;;27.61;30.53;101998.28;5154590;27;20046;-55
2021/06/08 00:15:54;;;;;;;4.55;3.83;;;23.80;45.30;;;27.60;30.76;101998.41;5153861;27;20498;-54
2021/06/08 00:18:19;;;;;;;4.57;3.55;;;23.90;45.40;;;27.58;30.62;102001.19;5154856;27;20130;-54
2021/06/08 00:20:45;;;;;;;4.25;3.58;;;23.80;45.40;;;27.60;30.50;101998.41;5154268;27;20051;-53
2021/06/08 00:23:11;;;;;;;6.55;3.70;;;23.80;45.30;;;27.56;30.86;101992.41;5154313;27;20074;-55
2021/06/08 00:25:38;;;;;;;4.28;3.88;;;23.80;45.40;;;27.59;30.78;101996.69;5154062;27;20110;-55
2021/06/08 00:28:05;;;;;;;6.32;3.60;;;23.80;45.40;;;27.56;30.78;101999.59;5154429;27;20061;-51
2021/06/08 00:30:32;;;;;;;3.83;3.35;;;23.80;45.40;;;27.57;30.88;101996.81;5134459;27;20054;-54
2021/06/08 00:32:58;;;;;;;3.90;3.58;;;23.80;45.40;;;27.54;30.70;101994.34;5154234;27;20055;-56
2021/06/08 00:35:25;;;;;;;4.10;3.70;;;23.80;45.40;;;27.56;30.82;101994.22;5154378;27;20517;-54
2021/06/08 00:37:51;;;;;;;4.47;3.47;;;23.80;45.40;;;27.56;30.71;101994.22;5154200;27;20043;-53
2021/06/08 00:40:17;;;;;;;4.00;3.33;;;23.80;45.50;;;27.51;30.76;101994.56;5154369;27;20395;-52
2021/06/08 00:42:44;;;;;;;3.63;3.33;;;23.80;45.50;;;27.52;30.96;101994.44;5154238;27;20402;-53
2021/06/08 00:45:11;;;;;;;4.20;3.67;;;23.80;45.60;;;27.53;30.89;101993.50;5154437;27;20445;-52
2021/06/08 00:47:37;;;;;;;3.85;3.47;;;23.80;45.50;;;27.51;30.58;101992.72;5154193;27;20129;-51
2021/06/08 00:50:04;;;;;;;3.95;3.42;;;23.80;46.00;;;27.50;30.82;101991.03;5154194;27;20512;-53
2021/06/08 00:52:29;;;;;;;4.07;3.50;;;23.80;45.50;;;27.53;30.76;101993.50;5153930;27;20054;-52
2021/06/08 00:54:55;;;;;;;4.55;3.70;;;23.80;45.50;;;27.52;30.91;101986.38;5154522;27;20051;-52
2021/06/08 00:57:21;;;;;;;5.30;3.40;;;23.80;45.50;;;27.51;31.07;101986.50;5134416;27;20047;-54
2021/06/08 00:59:47;;;;;;;4.22;3.72;;;23.80;45.50;;;27.52;30.80;101989.06;5153986;27;20571;-55
2021/06/08 01:02:15;;;;;;;4.53;3.70;;;23.80;45.60;;;27.49;30.70;101983.91;5154057;27;20059;-55
2021/06/08 01:04:41;;;;;;;3.75;3.35;;;23.80;45.60;;;27.51;30.85;101983.81;5154176;27;20043;-52
2021/06/08 01:07:07;;;;;;;4.43;3.35;;;23.80;45.60;;;27.48;30.61;101975.97;5154042;27;20047;-51
2021/06/08 01:09:33;;;;;;;3.97;3.45;;;23.70;45.50;;;27.50;30.64;101984.81;5154179;27;20383;-53
2021/06/08 01:11:59;;;;;;;3.90;3.50;;;23.70;45.50;;;27.48;31.02;101982.22;5153886;27;20488;-55
2021/06/08 01:14:24;;;;;;;4.03;3.63;;;23.70;45.60;;;27.48;30.94;101979.53;5153775;27;20043;-51
2021/06/08 01:16:50;;;;;;;4.80;3.72;;;23.70;45.60;;;27.48;30.94;101975.97;5153928;27;20046;-54
2021/06/08 01:19:17;;;;;;;4.10;3.67;;;23.70;45.60;;;27.45;30.86;101977.06;5155485;27;20051;-51
2021/06/08 01:21:43;;;;;;;3.47;3.17;;;23.70;45.60;;;27.47;30.81;101976.97;5157347;27;20091;-52
2021/06/08 01:24:10;;;;;;;5.90;3.22;;;23.70;45.60;;;27.45;30.97;101982.44;5157695;27;20039;-50
2021/06/08 01:26:37;;;;;;;4.22;3.58;;;23.70;45.60;;;27.45;30.81;101982.44;5157395;27;20096;-52
2021/06/08 01:29:05;;;;;;;4.32;3.65;;;23.70;45.60;;;27.42;30.91;101979.97;5139341;27;20543;-56
2021/06/08 01:31:34;;;;;;;4.60;3.55;;;23.70;45.70;;;27.45;31.01;101984.25;5157332;27;20053;-53
2021/06/08 01:34:01;;;;;;;4.18;3.42;;;23.70;45.70;;;27.44;31.14;101982.56;5157144;27;20046;-55
2021/06/08 01:36:34;;;;;;;3.53;3.22;;;23.70;45.70;;;27.40;31.02;101983.72;5138908;27;20058;-56
2021/06/08 01:39:00;;;;;;;3.72;3.40;;;23.70;45.70;;;27.38;30.69;101985.66;5138839;27;20058;-52
2021/06/08 01:41:26;;;;;;;3.35;3.05;;;23.70;45.70;;;27.40;30.84;101983.72;5138656;27;20053;-51
2021/06/08 01:43:53;;;;;;;4.30;3.78;;;23.70;45.80;;;27.38;31.00;101982.97;5157575;27;20054;-54
2021/06/08 01:46:21;;;;;;;3.85;3.55;;;23.60;45.80;;;27.40;30.94;101983.72;5157001;27;20051;-54
2021/06/08 01:48:48;;;;;;;4.60;3.22;;;23.60;45.70;;;27.40;30.92;101989.09;5137864;27;20070;-55
2021/06/08 01:51:47;;;;;;;4.50;4.05;;;23.60;45.80;;;27.37;31.07;101984.81;5157288;27;20081;-55
2021/06/08 01:54:39;;;;;;;3.80;3.33;;;23.60;45.80;;;27.35;31.08;101982.25;5138174;27;20051;-55
2021/06/08 01:57:17;;;;;;;4.38;3.58;;;23.60;45.80;;;27.34;31.01;101982.34;5138670;27;20050;-53
2021/06/08 02:00:25;;;;;;;3.83;3.42;;;23.60;45.80;;;27.34;30.91;101985.03;5157201;27;20049;-53
2021/06/08 02:03:01;;;;;;;4.05;3.35;;;23.60;45.80;;;27.31;31.04;101980.72;5143730;27;20086;-55
2021/06/08 02:05:43;;;;;;;3.50;3.20;;;23.60;45.80;;;27.34;31.23;101988.56;5136662;27;20047;-54
2021/06/08 02:08:43;;;;;;;4.00;3.63;;;23.60;45.90;;;27.34;31.16;101993.09;5156715;27;20530;-54
2021/06/08 02:11:20;;;;;;;4.20;3.55;;;23.60;45.90;;;27.31;31.08;101991.47;5156683;27;20046;-52
2021/06/08 02:14:08;;;;;;;3.67;3.38;;;23.60;45.90;;;27.27;31.03;101997.16;5137963;27;20491;-50
2021/06/08 02:16:53;;;;;;;4.10;3.70;;;23.60;45.90;;;27.27;31.20;101999.84;5138026;27;20074;-53
2021/06/08 02:19:23;;;;;;;4.57;3.65;;;23.60;45.90;;;27.31;31.19;102002.22;5137935;27;20039;-50
2021/06/08 02:21:55;;;;;;;3.42;3.13;;;23.50;45.90;;;27.29;30.94;101998.78;5137978;27;20138;-54
2021/06/08 02:24:24;;;;;;;4.20;3.53;;;23.60;45.90;;;27.27;31.16;102003.38;5156507;27;20054;-55
2021/06/08 02:26:55;;;;;;;3.95;3.55;;;23.60;46.00;;;27.28;30.93;102001.53;5156974;27;20047;-51
2021/06/08 02:29:22;;;;;;;3.92;3.47;;;23.60;46.00;;;27.28;31.15;102002.41;5138113;27;20046;-51
2021/06/08 02:31:49;;;;;;;3.47;3.17;;;23.60;46.00;;;27.29;31.31;102011.38;5138059;27;20039;-55
2021/06/08 02:34:17;;;;;;;3.38;3.08;;;23.50;46.00;;;27.28;31.31;102009.59;5137714;27;20403;-52
2021/06/08 02:36:45;;;;;;;5.18;3.50;;;23.50;46.00;;;27.27;31.19;102014.13;5137660;27;20046;-54
2021/06/08 02:39:11;;;;;;;5.40;3.70;;;23.50;46.00;;;27.26;31.37;102008.84;5137619;27;20125;-52
2021/06/08 02:41:39;;;;;;;4.25;3.45;;;23.50;46.00;;;27.25;31.28;102012.50;5137541;27;20043;-53
2021/06/08 02:44:06;;;;;;;4.72;3.83;;;23.50;46.00;;;27.26;31.16;102020.44;5120388;27;20496;-53
2021/06/08 02:46:32;;;;;;;4.75;3.30;;;23.50;46.10;;;27.24;31.19;102018.84;5120400;27;20087;-54
2021/06/08 02:49:00;;;;;;;3.50;3.20;;;23.50;46.10;;;27.21;31.36;102016.38;5137513;27;20050;-53
2021/06/08 02:51:27;;;;;;;3.97;3.40;;;23.50;46.10;;;27.21;31.20;102019.91;5137711;27;20095;-52
2021/06/08 02:53:57;;;;;;;3.97;3.58;;;23.50;46.10;;;27.20;31.27;102026.28;5156341;27;20133;-54
2021/06/08 02:56:23;;;;;;;3.92;3.40;;;23.50;46.10;;;27.21;31.24;102022.59;5137758;27;20131;-53
2021/06/08 02:58:49;;;;;;;4.53;3.88;;;23.50;46.10;;;27.16;31.24;102022.06;5136026;27;20126;-55
2021/06/08 03:01:17;;;;;;;3.20;2.80;;;23.40;46.10;;;27.20;31.59;102025.38;5137237;27;20440;-52
2021/06/08 03:03:46;;;;;;;2.88;2.67;;;23.40;46.10;;;27.18;31.28;102029.06;5137207;27;20095;-51
2021/06/08 03:06:21;;;;;;;4.88;3.42;;;23.40;46.10;;;27.17;31.17;102021.13;5137214;27;20562;-53
2021/06/08 03:08:58;;;;;;;4.85;3.42;;;23.40;46.10;;;27.14;31.42;102019.50;5135755;27;20043;-54
2021/06/08 03:11:29;;;;;;;3.15;2.83;;;23.40;46.20;;;27.17;31.18;102021.13;5137716;27;20062;-51
2021/06/08 03:13:56;;;;;;;3.67;3.00;;;23.40;46.10;;;27.18;31.41;102014.75;5136406;27;20070;-54
2021/06/08 03:16:25;;;;;;;4.22;3.22;;;23.40;46.20;;;27.17;31.30;102013.91;5137346;27;20035;-52
2021/06/08 03:18:55;;;;;;;3.88;3.38;;;23.40;46.20;;;27.15;31.37;102015.84;5136985;27;20077;-50
2021/06/08 03:21:30;;;;;;;4.47;3.53;;;23.40;46.20;;;27.12;31.52;102017.91;5102969;27;20424;-48
2021/06/08 03:23:59;;;;;;;3.40;3.10;;;23.40;46.20;;;27.16;31.22;102012.22;5120612;27;20081;-54
2021/06/08 03:26:27;;;;;;;3.80;3.17;;;23.40;46.30;;;27.14;31.60;102016.81;5155356;27;20049;-52
2021/06/08 03:28:56;;;;;;;3.28;2.97;;;23.40;46.30;;;27.12;31.52;102016.06;5136855;27;20091;-49
2021/06/08 03:31:22;;;;;;;4.20;2.92;;;23.40;46.30;;;27.14;31.40;102018.63;5135273;27;20096;-52
2021/06/08 03:33:50;;;;;;;3.65;3.20;;;23.40;46.30;;;27.13;31.45;102016.91;5136730;27;20039;-53
2021/06/08 03:36:17;;;;;;;3.65;3.30;;;23.40;46.30;;;27.11;31.33;102010.78;5155285;27;20049;-51
2021/06/08 03:38:44;;;;;;;4.82;3.13;;;23.40;46.30;;;27.14;31.42;102022.19;5135742;27;20058;-51
2021/06/08 03:41:10;;;;;;;3.75;3.05;;;23.40;46.30;;;27.10;31.41;102025.22;5136569;27;20071;-53
2021/06/08 03:43:36;;;;;;;3.72;3.42;;;23.40;46.40;;;27.11;31.45;102027.75;5136372;27;20051;-53
2021/06/08 03:46:02;;;;;;;3.20;2.90;;;23.40;46.40;;;27.09;31.46;102018.09;5136345;27;20043;-52
2021/06/08 03:48:29;;;;;;;3.60;3.17;;;23.40;46.40;;;27.08;31.36;102014.56;5155252;27;20035;-51
2021/06/08 03:50:56;;;;;;;4.07;3.42;;;23.40;46.40;;;27.08;31.56;102019.06;5135056;27;20047;-54
2021/06/08 03:53:24;;;;;;;3.95;3.28;;;23.30;46.40;;;27.05;31.31;102017.47;5134495;27;20553;-50
2021/06/08 03:55:54;;;;;;;3.33;3.03;;;23.30;46.40;;;27.08;31.64;102016.38;5154753;27;20103;-49
2021/06/08 03:58:21;;;;;;;4.18;3.55;;;23.30;46.40;;;27.06;31.71;102019.16;5136119;27;20115;-53
2021/06/08 04:00:51;;;;;;;3.63;3.25;;;23.30;46.40;;;27.02;31.46;102011.47;5154146;27;20073;-53
2021/06/08 04:03:18;;;;;;;3.42;3.15;;;23.30;46.40;;;27.05;31.65;102014.78;5135712;27;20050;-51
2021/06/08 04:05:46;;;;;;;4.07;3.30;;;23.30;46.40;;;27.07;31.37;102023.59;5154820;27;20054;-52
2021/06/08 04:08:12;;;;;;;4.28;3.38;;;23.30;46.40;;;27.06;31.43;102021.84;5154682;27;20053;-50
2021/06/08 04:10:41;;;;;;;3.42;3.13;;;23.30;46.50;;;27.05;31.67;102021.97;5154518;27;20051;-51
2021/06/08 04:13:07;;;;;;;4.03;3.63;;;23.30;46.40;;;27.05;31.49;102019.28;5154660;27;20071;-54
2021/06/08 04:15:34;;;;;;;3.50;3.20;;;23.40;46.50;;;27.05;31.48;102016.59;5154759;27;20047;-52
2021/06/08 04:18:09;;;;;;;4.20;3.08;;;23.30;46.50;;;27.02;31.36;102011.47;5154434;27;20130;-55
2021/06/08 04:20:35;;;;;;;3.30;3.00;;;23.30;46.40;;;27.03;31.71;102014.03;5154391;27;20047;-49
2021/06/08 04:23:01;;;;;;;3.88;3.45;;;23.40;46.50;;;27.05;31.47;102009.41;5134483;27;20051;-53
2021/06/08 04:25:27;;;;;;;3.30;3.00;;;23.30;46.40;;;27.06;31.52;102015.63;5154466;27;20093;-54
2021/06/08 04:27:55;;;;;;;4.18;3.20;;;23.30;46.40;;;27.03;31.64;102007.78;5154994;27;20046;-52
2021/06/08 04:30:22;;;;;;;3.53;3.22;;;23.30;46.40;;;27.02;31.54;102004.25;5154761;27;20153;-52
2021/06/08 04:32:49;;;;;;;4.60;3.33;;;23.30;46.40;;;27.06;31.68;102019.16;5154151;27;20046;-54
2021/06/08 04:35:17;;;;;;;3.30;2.85;;;23.40;46.50;;;27.05;31.66;102017.47;5154421;27;20418;-52
2021/06/08 04:37:43;;;;;;;3.83;2.90;;;23.30;46.40;;;27.06;31.40;102018.31;5154299;27;20129;-50
2021/06/08 04:40:11;;;;;;;3.92;2.95;;;23.40;46.40;;;27.08;31.47;102019.94;5135689;27;20481;-53
2021/06/08 04:42:39;;;;;;;3.83;3.40;;;23.40;46.40;;;27.09;31.46;102021.63;5135674;27;20047;-52
2021/06/08 04:45:06;;;;;;;3.35;3.03;;;23.40;46.40;;;27.07;31.51;102014.69;5133716;27;20051;-52
2021/06/08 04:47:31;;;;;;;3.50;3.20;;;23.40;46.40;;;27.09;31.53;102018.97;5154203;27;20049;-53
2021/06/08 04:49:57;;;;;;;3.40;3.10;;;23.40;46.30;;;27.10;31.38;102015.31;5153955;27;20078;-48
2021/06/08 04:52:23;;;;;;;3.55;3.25;;;23.40;46.90;;;27.10;31.34;102017.16;5154307;27;20055;-51
2021/06/08 04:54:49;;;;;;;4.03;3.65;;;23.40;46.40;;;27.09;31.55;102020.78;5156530;27;20413;-47
2021/06/08 04:57:16;;;;;;;3.55;3.25;;;23.40;46.30;;;27.09;31.55;102021.63;5158516;27;20421;-53
2021/06/08 05:00:13;;;;;;;4.45;3.20;;;23.40;46.30;;;27.11;31.63;102024.22;5158150;27;20091;-53
2021/06/08 05:02:59;;;;;;;3.28;2.97;;;23.40;46.40;;;27.10;31.54;102028.75;5157841;27;20133;-53
2021/06/08 05:05:27;;;;;;;3.25;2.95;;;23.40;46.30;;;27.12;31.64;102026.78;5137594;27;20057;-53
2021/06/08 05:08:09;;;;;;;3.00;2.67;;;23.40;46.30;;;27.10;31.53;102034.09;5157698;27;20060;-49
2021/06/08 05:10:42;;;;;;;4.03;3.55;;;23.40;46.30;;;27.11;31.38;102032.28;5138525;27;20078;-49
2021/06/08 05:13:10;;;;;;;3.72;3.22;;;23.50;46.30;;;27.12;31.28;102037.53;5138941;27;20050;-50
2021/06/08 05:15:41;;;;;;;3.20;2.88;;;23.40;46.20;;;27.10;31.46;102034.09;5138334;27;20061;-52
2021/06/08 05:18:12;;;;;;;4.13;3.35;;;23.40;46.20;;;27.14;31.41;102030.22;5121174;27;20504;-53
2021/06/08 05:20:44;;;;;;;3.53;3.22;;;23.40;46.30;;;27.15;31.37;102037.31;5138392;27;20047;-52
2021/06/08 05:23:10;;;;;;;3.05;2.72;;;23.50;46.30;;;27.15;31.38;102037.31;5121103;27;20050;-49
2021/06/08 05:25:39;;;;;;;3.45;3.15;;;23.50;46.30;;;27.14;31.48;102027.53;5137462;27;20054;-54
2021/06/08 05:28:05;;;;;;;3.33;3.00;;;23.50;46.20;;;27.18;31.51;102041.59;5137373;27;20039;-52
2021/06/08 05:30:31;;;;;;;3.25;2.85;;;23.50;46.30;;;27.17;31.45;102037.22;5138862;27;20135;-54
2021/06/08 05:32:57;;;;;;;3.63;2.90;;;23.50;46.20;;;27.16;31.41;102039.06;5157194;27;20047;-49
2021/06/08 05:35:28;;;;;;;4.15;3.20;;;23.50;46.20;;;27.13;31.35;102033.91;5157474;27;20076;-52
2021/06/08 05:38:07;;;;;;;3.38;2.85;;;23.50;46.20;;;27.17;31.62;102047.97;5156944;27;20077;-52
2021/06/08 05:40:35;;;;;;;3.63;3.33;;;23.50;46.20;;;27.22;31.38;102048.50;5156986;27;20047;-52
2021/06/08 05:43:01;;;;;;;4.05;3.08;;;23.50;46.20;;;27.21;31.23;102046.75;5156955;27;20050;-53
2021/06/08 05:45:31;;;;;;;3.30;3.00;;;23.50;46.20;;;27.24;31.19;102045.72;5157095;27;20045;-51
2021/06/08 05:47:57;;;;;;;3.13;2.83;;;23.50;46.10;;;27.26;31.26;102049.97;5156929;27;20099;-53
2021/06/08 05:50:24;;;;;;;4.05;3.33;;;23.60;46.20;;;27.24;31.11;102037.66;5156797;27;20125;-52
2021/06/08 05:52:54;;;;;;;3.20;2.90;;;23.50;46.10;;;27.25;31.36;102031.28;5138457;27;20045;-54
2021/06/08 05:55:26;;;;;;;3.17;2.88;;;23.60;46.10;;;27.27;31.45;102037.44;5157090;27;20043;-47
2021/06/08 05:57:53;;;;;;;3.38;2.78;;;23.60;46.10;;;27.32;31.49;102051.44;5138593;27;20099;-52
2021/06/08 06:00:20;;;;;;;3.00;2.63;;;23.60;46.10;;;27.32;31.14;102054.13;5157151;27;21311;-51
2021/06/08 06:02:47;;;;;;;3.97;3.58;;;23.60;46.10;;;27.33;31.32;102051.31;5156779;27;20043;-53
2021/06/08 06:05:15;;;;;;;2.90;2.70;;;23.60;46.10;;;27.34;31.35;102055.72;5136289;27;20039;-50
2021/06/08 06:07:43;;;;;;;3.50;3.05;;;23.60;46.00;;;27.35;31.39;102057.44;5136666;27;20089;-50
2021/06/08 06:10:11;;;;;;;3.38;3.08;;;23.60;45.90;;;27.36;31.17;102060.97;5156670;27;20053;-52
2021/06/08 06:12:41;;;;;;;3.58;3.03;;;23.60;45.90;;;27.39;31.05;102060.75;5138279;27;20046;-48
2021/06/08 06:15:12;;;;;;;3.25;2.90;;;23.70;45.90;;;27.38;31.26;102056.34;5156465;27;20087;-52
2021/06/08 06:17:40;;;;;;;3.47;3.17;;;23.70;45.90;;;27.44;31.03;102057.75;5137998;27;20050;-51
2021/06/08 06:20:12;;;;;;;3.15;2.88;;;23.70;45.80;;;27.44;30.94;102060.44;5137734;27;20095;-52
2021/06/08 06:22:38;;;;;;;3.00;2.70;;;23.70;45.80;;;27.46;31.09;102050.44;5156340;27;20047;-50
2021/06/08 06:25:08;;;;;;;3.95;3.15;;;23.70;45.80;;;27.47;31.05;102052.16;5156319;27;20053;-51
2021/06/08 06:27:39;;;;;;;2.85;2.55;;;23.70;45.70;;;27.46;31.13;102050.44;5155998;27;20046;-51
2021/06/08 06:30:06;;;;;;;;;;;23.70;45.70;;;27.61;30.87;102052.03;5156387;27;20076;-52
2021/06/08 06:32:33;;;;;;;2.85;2.60;;;23.80;45.70;;;27.60;30.77;102054.81;5156178;27;19914;-50
2021/06/08 06:35:00;;;;;;;2.80;2.60;;;23.80;45.60;;;27.58;30.63;102062.13;5156209;27;20046;-49
2021/06/08 06:37:27;;;;;;;3.60;3.30;;;23.80;45.60;;;27.56;30.94;102054.19;5156222;27;20487;-51
2021/06/08 06:39:55;;;;;;;3.53;3.10;;;23.80;45.60;;;27.57;31.05;102057.75;5156103;27;20046;-48
2021/06/08 06:42:25;;;;;;;3.72;3.15;;;23.80;45.50;;;27.59;31.02;102062.03;5137756;27;20126;-51
2021/06/08 06:44:52;;;;;;;3.75;2.90;;;23.80;45.50;;;27.62;30.81;102060.97;5120546;27;20475;-49
2021/06/08 06:47:18;;;;;;;4.03;2.72;;;23.80;45.50;;;27.59;30.70;102053.97;5155929;27;20142;-54
2021/06/08 06:49:44;;;;;;;3.10;2.80;;;23.80;45.50;;;27.65;30.85;102060.72;5137286;27;20096;-49
2021/06/08 06:52:11;;;;;;;2.67;2.47;;;23.80;45.50;;;27.64;30.68;102059.03;5155714;27;20476;-53
2021/06/08 06:54:39;;;;;;;5.68;2.67;;;23.80;45.40;;;27.68;30.83;102071.25;5155917;27;20039;-50
2021/06/08 06:57:05;;;;;;;3.00;2.80;;;23.80;45.40;;;27.68;30.58;102065.88;5156528;27;20050;-47
2021/06/08 06:59:32;;;;;;;3.20;2.95;;;23.90;45.40;;;27.67;30.80;102059.66;5135454;27;20130;-50
2021/06/08 07:01:58;;;;;;;3.05;2.72;;;23.90;46.00;;;27.69;30.50;102057.72;5156315;27;20099;-52
2021/06/08 07:04:25;;;;;;;3.58;2.60;;;23.90;45.40;;;27.72;30.45;102059.31;5155599;27;20479;-54
2021/06/08 07:06:52;;;;;;;2.78;2.58;;;23.90;45.40;;;27.72;30.55;102064.69;5137433;27;20050;-54
2021/06/08 07:09:24;;;;;;;3.30;2.92;;;23.90;45.90;;;27.75;30.38;102067.16;5155689;27;20134;-51
2021/06/08 07:11:54;;;;;;;3.28;2.97;;;23.90;45.30;;;27.77;30.38;102062.53;5137189;27;20460;-50
2021/06/08 07:14:21;;;;;;;3.72;3.25;;;23.90;45.20;;;27.80;30.67;102069.50;5137075;27;20103;-55
2021/06/08 07:16:50;;;;;;;2.92;2.63;;;23.90;45.20;;;27.78;30.54;102069.63;5154944;27;20397;-53
2021/06/08 07:19:17;;;;;;;2.97;2.70;;;24.00;45.20;;;27.82;30.66;102071.13;5155382;27;20129;-49
2021/06/08 07:21:44;;;;;;;3.05;2.75;;;24.00;45.20;;;27.84;30.43;102079.94;5155665;27;20099;-53
2021/06/08 07:24:11;;;;;;;2.90;2.70;;;24.00;45.20;;;27.85;30.39;102078.97;5155478;27;20056;-52
2021/06/08 07:26:39;;;;;;;2.88;2.60;;;24.00;45.20;;;27.84;30.62;102082.63;5136873;27;20043;-52
2021/06/08 07:29:11;;;;;;;2.70;2.45;;;24.00;45.20;;;27.85;30.39;102075.41;5155303;27;20053;-52
2021/06/08 07:32:02;;;;;;;2.90;2.70;;;24.00;45.10;;;27.87;30.63;102082.41;5137062;27;20049;-54
2021/06/08 07:34:48;;;;;;;2.58;2.38;;;24.00;45.10;;;27.90;30.29;102084.03;5155450;27;20053;-49
2021/06/08 07:37:19;;;;;;;3.08;2.80;;;24.00;45.10;;;27.90;30.35;102074.13;5155408;27;20047;-46
2021/06/08 07:39:52;;;;;;;2.80;2.60;;;24.10;45.60;;;27.94;30.33;102084.69;5136028;27;20063;-54
2021/06/08 07:42:25;;;;;;;3.08;2.88;;;24.10;45.10;;;27.93;30.47;102082.94;5136647;27;20054;-52
2021/06/08 07:45:06;;;;;;;3.38;2.47;;;24.10;45.10;;;27.95;30.22;102084.56;5137157;27;20479;-52
2021/06/08 07:47:33;;;;;;;2.67;2.47;;;24.10;45.00;;;28.00;30.19;102085.09;5136077;27;20057;-51
2021/06/08 07:50:03;;;;;;;2.67;2.42;;;24.10;45.00;;;27.99;30.03;102078.00;5155013;27;20407;-52
2021/06/08 07:52:29;;;;;;;3.03;2.70;;;24.10;45.00;;;28.03;30.30;102089.38;5155158;27;20058;-49
2021/06/08 07:54:55;;;;;;;3.83;2.63;;;24.10;44.90;;;28.01;30.31;102080.56;5154867;27;20137;-52
2021/06/08 07:57:23;;;;;;;3.10;2.83;;;24.20;45.00;;;27.98;30.21;102073.56;5136322;27;20444;-52
2021/06/08 07:59:50;;;;;;;2.65;2.45;;;24.20;44.90;;;28.05;30.11;102080.25;5154874;27;20053;-50
2021/06/08 08:02:21;;;;;;;3.05;2.75;;;24.20;44.90;;;28.05;30.10;102074.88;5154748;27;20179;-49
2021/06/08 08:04:56;;;;;;;;;;;24.20;44.90;;;28.24;29.95;102082.41;5155213;27;20997;-52
2021/06/08 08:07:26;;;;;;;2.53;2.22;;;24.20;44.80;;;28.18;30.20;102085.56;5137709;27;20396;-50
2021/06/08 08:09:54;;;;;;;3.10;2.80;;;24.30;44.80;;;28.18;29.98;102088.25;5155303;27;20047;-50
2021/06/08 08:12:22;;;;;;;3.30;2.80;;;24.30;44.70;;;28.21;29.95;102089.84;5154437;27;20495;-54
2021/06/08 08:14:51;;;;;;;2.78;2.58;;;24.30;44.70;;;28.22;30.09;102089.75;5154524;27;20133;-52
2021/06/08 08:17:38;;;;;;;2.55;2.20;;;24.30;44.60;;;28.28;29.75;102083.03;5097331;27;20447;-52
2021/06/08 08:20:09;;;;;;;3.40;2.70;;;24.40;44.60;;;28.28;29.87;102088.41;5154379;27;20050;-52
2021/06/08 08:22:35;;;;;;;2.88;2.35;;;24.40;44.60;;;28.33;29.77;102086.25;5154607;27;20129;-50
2021/06/08 08:25:01;;;;;;;3.10;2.53;;;24.40;44.50;;;28.29;30.04;102079.41;5154326;27;20042;-50
2021/06/08 08:27:26;;;;;;;2.78;2.58;;;24.40;44.50;;;28.33;29.81;102085.41;5154487;27;20130;-51
2021/06/08 08:29:52;;;;;;;2.50;2.30;;;24.40;44.40;;;28.38;29.87;102085.91;5154433;27;20053;-50
2021/06/08 08:32:18;;;;;;;2.38;2.15;;;24.50;44.50;;;28.41;29.87;102091.91;5154326;27;20081;-50
2021/06/08 08:34:45;;;;;;;2.90;2.70;;;24.50;44.40;;;28.42;29.51;102090.97;5154304;27;20556;-54
2021/06/08 08:37:11;;;;;;;3.53;2.63;;;24.50;44.40;;;28.46;29.89;102094.28;5154353;27;20111;-54
2021/06/08 08:39:37;;;;;;;4.38;2.67;;;24.50;44.90;;;28.44;29.66;102094.38;5154211;27;20508;-47
2021/06/08 08:42:05;;;;;;;2.65;2.45;;;24.50;44.30;;;28.53;29.79;102091.97;5154236;27;20476;-51
2021/06/08 08:44:32;;;;;;;3.63;2.22;;;24.60;44.20;;;28.57;29.49;102088.97;5154210;27;20039;-52
2021/06/08 08:46:57;;;;;;;2.85;2.40;;;24.70;44.20;;;28.62;29.66;102097.56;5154145;27;20448;-49
2021/06/08 08:49:23;;;;;;;2.20;2.00;;;24.70;44.10;;;28.65;29.26;102091.06;5135538;27;20130;-52
2021/06/08 08:51:50;;;;;;;2.30;2.10;;;24.70;44.00;;;28.65;29.23;102080.31;5154063;27;20046;-53
2021/06/08 08:54:20;;;;;;;3.13;2.42;;;24.70;44.00;;;28.68;29.44;102085.47;5153905;27;20047;-50
2021/06/08 08:56:47;;;;;;;3.60;2.33;;;24.70;43.90;;;28.71;29.33;102079.00;5151034;27;20049;-53
2021/06/08 08:59:15;;;;;;;2.70;2.50;;;24.70;43.90;;;28.71;29.31;102079.84;5154029;27;20268;-52
2021/06/08 09:01:46;;;;;;;2.33;2.17;;;24.80;44.00;;;28.76;29.22;102084.88;5153793;27;20083;-54
2021/06/08 09:04:13;;;;;;;2.58;2.38;;;24.80;43.90;;;28.81;29.05;102080.00;5135453;27;20047;-54
2021/06/08 09:06:38;;;;;;;2.78;2.20;;;24.80;43.80;;;28.81;29.39;102075.47;5135409;27;20484;-52
2021/06/08 09:09:08;;;;;;;2.75;2.55;;;24.90;43.80;;;28.85;29.43;102072.53;5154140;27;20043;-53
2021/06/08 09:11:41;;;;;;;2.50;2.30;;;24.90;43.70;;;28.91;29.31;102075.63;5153897;27;20034;-53
2021/06/08 09:14:10;;;;;;;3.05;2.75;;;25.00;43.60;;;28.92;29.31;102074.66;5153741;27;20047;-51
2021/06/08 09:16:36;;;;;;;2.58;2.35;;;25.00;43.50;;;28.98;29.22;102079.56;5154132;27;20039;-51
2021/06/08 09:19:08;;;;;;;2.75;2.50;;;25.00;43.40;;;29.01;28.89;102073.09;5153787;27;20047;-50
2021/06/08 09:21:38;;;;;;;3.28;2.55;;;25.00;43.40;;;29.03;28.97;102068.44;5154060;27;20146;-54
2021/06/08 09:24:25;;;;;;;2.90;2.22;;;25.10;43.30;;;29.07;28.88;102069.91;5153858;27;20087;-49
2021/06/08 09:26:56;;;;;;;3.13;2.83;;;25.10;43.40;;;29.09;29.08;102078.72;5154071;27;20051;-55
2021/06/08 09:29:33;;;;;;;2.92;2.63;;;25.20;43.30;;;29.13;28.94;102072.13;5153724;27;20046;-53
2021/06/08 09:32:22;;;;;;;3.67;2.60;;;25.20;43.20;;;29.14;28.81;102073.84;5118155;27;20075;-55
2021/06/08 09:34:58;;;;;;;2.38;2.17;;;25.20;43.30;;;29.14;29.07;102068.47;5153581;27;20499;-53
2021/06/08 09:37:40;;;;;;;2.55;2.33;;;25.20;43.20;;;29.18;28.86;102064.56;5153424;27;20046;-52
2021/06/08 09:40:24;;;;;;;2.15;1.95;;;25.30;43.80;;;29.18;28.81;102069.94;5154613;27;20038;-53
2021/06/08 09:43:10;;;;;;;2.63;2.42;;;25.30;43.10;;;29.22;28.97;102069.72;5157354;27;20047;-54
2021/06/08 09:46:01;;;;;;;2.90;2.63;;;25.30;43.00;;;29.23;28.85;102060.66;5156832;27;20054;-51
2021/06/08 09:48:26;;;;;;;2.30;2.10;;;25.40;43.00;;;29.28;28.68;102067.41;5156827;27;20050;-54
2021/06/08 09:50:55;;;;;;;2.53;2.33;;;25.40;42.90;;;29.25;28.76;102066.78;5157266;27;20047;-52
2021/06/08 09:53:28;;;;;;;3.05;2.45;;;25.40;43.00;;;29.27;28.72;102064.81;5157128;27;20042;-49
2021/06/08 09:56:04;;;;;;;2.30;2.08;;;25.40;43.00;;;29.25;28.81;102064.94;5157217;27;20047;-55
2021/06/08 09:58:31;;;;;;;4.38;2.80;;;25.40;43.00;;;29.29;28.62;102063.72;5138368;27;20399;-52
2021/06/08 10:01:23;;;;;;;2.28;2.08;;;25.40;42.80;;;29.30;28.84;102070.84;5156653;27;20097;-52
2021/06/08 10:03:54;;;;;;;3.20;2.63;;;25.50;42.90;;;29.29;28.50;102054.81;5156948;27;20050;-52
2021/06/08 10:06:23;;;;;;;2.47;2.28;;;25.50;42.70;;;29.32;28.41;102055.41;5156389;27;20072;-53
2021/06/08 10:09:00;;;;;;;2.00;1.90;;;25.50;42.70;;;29.31;28.72;102064.47;5156911;27;20192;-52
2021/06/08 10:11:32;;;;;;;3.25;2.42;;;25.50;42.70;;;29.31;28.54;102050.16;5156636;27;20046;-53
2021/06/08 10:14:19;;;;;;;3.10;2.40;;;25.50;42.70;;;29.30;28.54;102054.69;5137838;27;20078;-52
2021/06/08 10:16:58;;;;;;;2.80;2.60;;;25.50;42.70;;;29.32;28.46;102057.22;5156313;27;20058;-52
2021/06/08 10:19:29;;;;;;;2.33;2.10;;;25.50;42.70;;;29.30;28.36;102051.13;5137668;27;20379;-47
2021/06/08 10:21:55;;;;;;;2.45;2.25;;;25.50;42.60;;;29.31;28.65;102055.53;5156742;27;20047;-53
2021/06/08 10:24:23;;;;;;;2.33;2.13;;;25.50;42.60;;;29.30;28.51;102060.06;5156301;27;20070;-51